sensor_id;sensor_type;location;lat;lon;timestamp;temperature;humidity
78793;SHT31;68134;51.984;5.652;2023-04-05T00:02:02;6.9;53.2
78793;SHT31;68134;51.984;5.652;2023-04-05T00:04:33;6.9;53.5
78793;SHT31;68134;51.984;5.652;2023-04-05T00:07:07;6.8;53.4
78793;SHT31;68134;51.984;5.652;2023-04-05T00:09:40;6.8;52.9
78793;SHT31;68134;51.984;5.652;2023-04-05T00:12:10;6.7;53.7
78793;SHT31;68134;51.984;5.652;2023-04-05T00:14:40;6.7;53.2
78793;SHT31;68134;51.984;5.652;2023-04-05T00:17:10;6.7;53.4
78793;SHT31;68134;51.984;5.652;2023-04-05T00:19:40;6.6;53.4
78793;SHT31;68134;51.984;5.652;2023-04-05T00:22:10;6.6;53.9
78793;SHT31;68134;51.984;5.652;2023-04-05T00:24:39;6.5;53.4
78793;SHT31;68134;51.984;5.652;2023-04-05T00:27:09;6.5;53.7
78793;SHT31;68134;51.984;5.652;2023-04-05T00:29:39;6.5;53.7
78793;SHT31;68134;51.984;5.652;2023-04-05T00:32:09;6.4;53.6
78793;SHT31;68134;51.984;5.652;2023-04-05T00:34:38;6.4;54.0
78793;SHT31;68134;51.984;5.652;2023-04-05T00:37:10;6.3;53.7
78793;SHT31;68134;51.984;5.652;2023-04-05T00:39:41;6.3;53.7
78793;SHT31;68134;51.984;5.652;2023-04-05T00:42:13;6.2;53.7
78793;SHT31;68134;51.984;5.652;2023-04-05T00:44:43;6.2;54.0
78793;SHT31;68134;51.984;5.652;2023-04-05T00:47:13;6.2;53.7
78793;SHT31;68134;51.984;5.652;2023-04-05T00:49:43;6.1;53.5
78793;SHT31;68134;51.984;5.652;2023-04-05T00:52:14;6.1;53.7
78793;SHT31;68134;51.984;5.652;2023-04-05T00:54:44;6.1;53.6
78793;SHT31;68134;51.984;5.652;2023-04-05T00:57:14;6.0;53.8
78793;SHT31;68134;51.984;5.652;2023-04-05T00:59:44;6.0;53.7
78793;SHT31;68134;51.984;5.652;2023-04-05T01:02:18;5.9;54.0
78793;SHT31;68134;51.984;5.652;2023-04-05T01:04:58;5.9;53.2
78793;SHT31;68134;51.984;5.652;2023-04-05T01:07:37;5.9;53.8
78793;SHT31;68134;51.984;5.652;2023-04-05T01:10:12;5.8;54.0
78793;SHT31;68134;51.984;5.652;2023-04-05T01:12:43;5.8;53.8
78793;SHT31;68134;51.984;5.652;2023-04-05T01:15:13;5.7;53.8
78793;SHT31;68134;51.984;5.652;2023-04-05T01:17:45;5.7;54.2
78793;SHT31;68134;51.984;5.652;2023-04-05T01:20:15;5.6;54.3
78793;SHT31;68134;51.984;5.652;2023-04-05T01:23:15;5.6;54.5
78793;SHT31;68134;51.984;5.652;2023-04-05T01:26:55;5.6;54.7
78793;SHT31;68134;51.984;5.652;2023-04-05T01:32:41;5.4;54.8
78793;SHT31;68134;51.984;5.652;2023-04-05T01:35:17;5.4;55.1
78793;SHT31;68134;51.984;5.652;2023-04-05T01:37:56;5.4;55.2
78793;SHT31;68134;51.984;5.652;2023-04-05T01:40:29;5.3;55.1
78793;SHT31;68134;51.984;5.652;2023-04-05T01:43:02;5.3;55.1
78793;SHT31;68134;51.984;5.652;2023-04-05T01:45:32;5.2;55.2
78793;SHT31;68134;51.984;5.652;2023-04-05T01:48:01;5.2;55.2
78793;SHT31;68134;51.984;5.652;2023-04-05T01:50:31;5.2;55.3
78793;SHT31;68134;51.984;5.652;2023-04-05T01:53:01;5.1;55.0
78793;SHT31;68134;51.984;5.652;2023-04-05T01:55:32;5.1;55.2
78793;SHT31;68134;51.984;5.652;2023-04-05T01:58:02;5.0;55.3
78793;SHT31;68134;51.984;5.652;2023-04-05T02:00:32;5.0;55.8
78793;SHT31;68134;51.984;5.652;2023-04-05T02:03:01;4.9;55.8
78793;SHT31;68134;51.984;5.652;2023-04-05T02:05:31;4.9;55.7
78793;SHT31;68134;51.984;5.652;2023-04-05T02:08:00;4.9;55.7
78793;SHT31;68134;51.984;5.652;2023-04-05T02:10:30;4.8;55.8
78793;SHT31;68134;51.984;5.652;2023-04-05T02:13:00;4.8;55.9
78793;SHT31;68134;51.984;5.652;2023-04-05T02:15:29;4.8;56.2
78793;SHT31;68134;51.984;5.652;2023-04-05T02:18:00;4.7;56.2
78793;SHT31;68134;51.984;5.652;2023-04-05T02:20:30;4.7;56.6
78793;SHT31;68134;51.984;5.652;2023-04-05T02:23:00;4.7;56.6
78793;SHT31;68134;51.984;5.652;2023-04-05T02:25:32;4.6;57.0
78793;SHT31;68134;51.984;5.652;2023-04-05T02:28:02;4.6;56.7
78793;SHT31;68134;51.984;5.652;2023-04-05T02:30:32;4.6;57.0
78793;SHT31;68134;51.984;5.652;2023-04-05T02:33:01;4.5;57.2
78793;SHT31;68134;51.984;5.652;2023-04-05T02:35:31;4.5;56.9
78793;SHT31;68134;51.984;5.652;2023-04-05T02:38:01;4.5;56.8
78793;SHT31;68134;51.984;5.652;2023-04-05T02:40:31;4.5;57.1
78793;SHT31;68134;51.984;5.652;2023-04-05T02:43:01;4.4;57.2
78793;SHT31;68134;51.984;5.652;2023-04-05T02:45:32;4.4;57.0
78793;SHT31;68134;51.984;5.652;2023-04-05T02:48:02;4.4;57.2
78793;SHT31;68134;51.984;5.652;2023-04-05T02:50:32;4.3;57.5
78793;SHT31;68134;51.984;5.652;2023-04-05T02:53:02;4.3;57.4
78793;SHT31;68134;51.984;5.652;2023-04-05T02:55:32;4.3;57.5
78793;SHT31;68134;51.984;5.652;2023-04-05T02:58:02;4.2;57.6
78793;SHT31;68134;51.984;5.652;2023-04-05T03:00:32;4.2;57.7
78793;SHT31;68134;51.984;5.652;2023-04-05T03:03:04;4.2;57.8
78793;SHT31;68134;51.984;5.652;2023-04-05T03:05:34;4.2;57.7
78793;SHT31;68134;51.984;5.652;2023-04-05T03:08:04;4.1;57.8
78793;SHT31;68134;51.984;5.652;2023-04-05T03:10:35;4.1;57.9
78793;SHT31;68134;51.984;5.652;2023-04-05T03:13:06;4.1;57.7
78793;SHT31;68134;51.984;5.652;2023-04-05T03:15:36;4.1;57.6
78793;SHT31;68134;51.984;5.652;2023-04-05T03:18:06;4.0;58.0
78793;SHT31;68134;51.984;5.652;2023-04-05T03:20:36;4.0;58.2
78793;SHT31;68134;51.984;5.652;2023-04-05T03:23:08;4.0;58.5
78793;SHT31;68134;51.984;5.652;2023-04-05T03:25:37;4.0;58.1
78793;SHT31;68134;51.984;5.652;2023-04-05T03:28:08;3.9;58.0
78793;SHT31;68134;51.984;5.652;2023-04-05T03:30:39;3.9;58.0
78793;SHT31;68134;51.984;5.652;2023-04-05T03:33:09;3.9;57.9
78793;SHT31;68134;51.984;5.652;2023-04-05T03:35:39;3.9;58.8
78793;SHT31;68134;51.984;5.652;2023-04-05T03:38:08;3.8;58.7
78793;SHT31;68134;51.984;5.652;2023-04-05T03:40:38;3.8;58.7
78793;SHT31;68134;51.984;5.652;2023-04-05T03:43:08;3.8;58.4
78793;SHT31;68134;51.984;5.652;2023-04-05T03:45:38;3.8;58.2
78793;SHT31;68134;51.984;5.652;2023-04-05T03:48:07;3.7;58.8
78793;SHT31;68134;51.984;5.652;2023-04-05T03:50:37;3.7;58.5
78793;SHT31;68134;51.984;5.652;2023-04-05T03:53:07;3.7;58.5
78793;SHT31;68134;51.984;5.652;2023-04-05T03:55:37;3.7;58.3
78793;SHT31;68134;51.984;5.652;2023-04-05T03:58:08;3.6;58.7
78793;SHT31;68134;51.984;5.652;2023-04-05T04:00:40;3.6;58.8
78793;SHT31;68134;51.984;5.652;2023-04-05T04:03:09;3.6;58.9
78793;SHT31;68134;51.984;5.652;2023-04-05T04:05:40;3.6;59.1
78793;SHT31;68134;51.984;5.652;2023-04-05T04:08:12;3.5;59.2
78793;SHT31;68134;51.984;5.652;2023-04-05T04:10:41;3.5;59.4
78793;SHT31;68134;51.984;5.652;2023-04-05T04:13:11;3.5;59.4
78793;SHT31;68134;51.984;5.652;2023-04-05T04:15:41;3.5;59.5
78793;SHT31;68134;51.984;5.652;2023-04-05T04:18:11;3.5;59.7
78793;SHT31;68134;51.984;5.652;2023-04-05T04:20:40;3.4;58.9
78793;SHT31;68134;51.984;5.652;2023-04-05T04:23:10;3.4;59.5
78793;SHT31;68134;51.984;5.652;2023-04-05T04:25:40;3.4;59.7
78793;SHT31;68134;51.984;5.652;2023-04-05T04:28:12;3.4;59.7
78793;SHT31;68134;51.984;5.652;2023-04-05T04:30:46;3.4;59.9
78793;SHT31;68134;51.984;5.652;2023-04-05T04:33:15;3.3;59.7
78793;SHT31;68134;51.984;5.652;2023-04-05T04:35:46;3.3;60.0
78793;SHT31;68134;51.984;5.652;2023-04-05T04:38:16;3.3;59.7
78793;SHT31;68134;51.984;5.652;2023-04-05T04:40:48;3.3;60.2
78793;SHT31;68134;51.984;5.652;2023-04-05T04:43:20;3.3;60.2
78793;SHT31;68134;51.984;5.652;2023-04-05T04:45:53;3.2;60.1
78793;SHT31;68134;51.984;5.652;2023-04-05T04:48:23;3.2;60.0
78793;SHT31;68134;51.984;5.652;2023-04-05T04:50:53;3.2;60.0
78793;SHT31;68134;51.984;5.652;2023-04-05T04:53:23;3.2;60.0
78793;SHT31;68134;51.984;5.652;2023-04-05T04:55:53;3.2;60.1
78793;SHT31;68134;51.984;5.652;2023-04-05T04:58:23;3.1;59.8
78793;SHT31;68134;51.984;5.652;2023-04-05T05:00:53;3.1;60.2
78793;SHT31;68134;51.984;5.652;2023-04-05T05:03:27;3.1;60.0
78793;SHT31;68134;51.984;5.652;2023-04-05T05:05:58;3.1;60.4
78793;SHT31;68134;51.984;5.652;2023-04-05T05:08:28;3.1;60.6
78793;SHT31;68134;51.984;5.652;2023-04-05T05:10:58;3.1;60.5
78793;SHT31;68134;51.984;5.652;2023-04-05T05:13:27;3.0;60.7
78793;SHT31;68134;51.984;5.652;2023-04-05T05:15:57;3.0;60.7
78793;SHT31;68134;51.984;5.652;2023-04-05T05:18:28;3.0;60.5
78793;SHT31;68134;51.984;5.652;2023-04-05T05:20:57;3.0;60.9
78793;SHT31;68134;51.984;5.652;2023-04-05T05:23:30;3.0;61.2
78793;SHT31;68134;51.984;5.652;2023-04-05T05:25:59;3.0;61.0
78793;SHT31;68134;51.984;5.652;2023-04-05T05:28:30;3.0;60.9
78793;SHT31;68134;51.984;5.652;2023-04-05T05:30:59;3.0;61.2
78793;SHT31;68134;51.984;5.652;2023-04-05T05:33:29;3.0;61.3
78793;SHT31;68134;51.984;5.652;2023-04-05T05:35:58;3.0;61.5
78793;SHT31;68134;51.984;5.652;2023-04-05T05:38:29;3.0;61.4
78793;SHT31;68134;51.984;5.652;2023-04-05T05:40:59;3.0;61.4
78793;SHT31;68134;51.984;5.652;2023-04-05T05:43:29;3.0;61.6
78793;SHT31;68134;51.984;5.652;2023-04-05T05:46:01;3.0;61.8
78793;SHT31;68134;51.984;5.652;2023-04-05T05:48:31;3.0;62.0
78793;SHT31;68134;51.984;5.652;2023-04-05T05:51:00;3.0;62.0
78793;SHT31;68134;51.984;5.652;2023-04-05T05:53:35;3.0;62.3
78793;SHT31;68134;51.984;5.652;2023-04-05T05:56:05;3.1;62.3
78793;SHT31;68134;51.984;5.652;2023-04-05T05:58:35;3.1;62.2
78793;SHT31;68134;51.984;5.652;2023-04-05T06:01:05;3.2;62.5
78793;SHT31;68134;51.984;5.652;2023-04-05T06:03:38;3.2;62.8
78793;SHT31;68134;51.984;5.652;2023-04-05T06:06:08;3.3;62.2
78793;SHT31;68134;51.984;5.652;2023-04-05T06:08:37;3.4;62.0
78793;SHT31;68134;51.984;5.652;2023-04-05T06:11:17;3.5;61.6
78793;SHT31;68134;51.984;5.652;2023-04-05T06:13:50;3.6;61.5
78793;SHT31;68134;51.984;5.652;2023-04-05T06:16:21;3.7;61.1
78793;SHT31;68134;51.984;5.652;2023-04-05T06:18:53;3.8;61.3
78793;SHT31;68134;51.984;5.652;2023-04-05T06:21:23;3.8;61.1
78793;SHT31;68134;51.984;5.652;2023-04-05T06:23:53;3.9;61.0
78793;SHT31;68134;51.984;5.652;2023-04-05T06:26:24;4.0;61.0
78793;SHT31;68134;51.984;5.652;2023-04-05T06:28:56;4.0;61.1
78793;SHT31;68134;51.984;5.652;2023-04-05T06:31:31;4.0;61.3
78793;SHT31;68134;51.984;5.652;2023-04-05T06:34:01;4.1;61.6
78793;SHT31;68134;51.984;5.652;2023-04-05T06:36:32;4.1;61.7
78793;SHT31;68134;51.984;5.652;2023-04-05T06:39:02;4.2;62.0
78793;SHT31;68134;51.984;5.652;2023-04-05T06:41:32;4.2;61.8
78793;SHT31;68134;51.984;5.652;2023-04-05T06:44:02;4.3;62.1
78793;SHT31;68134;51.984;5.652;2023-04-05T06:46:31;4.3;61.7
78793;SHT31;68134;51.984;5.652;2023-04-05T06:49:03;4.4;62.0
78793;SHT31;68134;51.984;5.652;2023-04-05T06:51:33;4.5;61.8
78793;SHT31;68134;51.984;5.652;2023-04-05T06:54:02;4.6;61.0
78793;SHT31;68134;51.984;5.652;2023-04-05T06:56:32;4.7;61.3
78793;SHT31;68134;51.984;5.652;2023-04-05T06:59:02;4.7;61.4
78793;SHT31;68134;51.984;5.652;2023-04-05T07:01:31;4.8;61.4
78793;SHT31;68134;51.984;5.652;2023-04-05T07:04:02;4.8;60.6
78793;SHT31;68134;51.984;5.652;2023-04-05T07:06:32;4.9;61.3
78793;SHT31;68134;51.984;5.652;2023-04-05T07:09:05;4.9;60.6
78793;SHT31;68134;51.984;5.652;2023-04-05T07:11:37;5.0;61.1
78793;SHT31;68134;51.984;5.652;2023-04-05T07:14:06;5.1;58.9
78793;SHT31;68134;51.984;5.652;2023-04-05T07:16:36;5.2;60.5
78793;SHT31;68134;51.984;5.652;2023-04-05T07:19:06;5.3;59.6
78793;SHT31;68134;51.984;5.652;2023-04-05T07:21:36;5.4;58.0
78793;SHT31;68134;51.984;5.652;2023-04-05T07:24:06;5.5;56.3
78793;SHT31;68134;51.984;5.652;2023-04-05T07:26:36;5.7;53.0
78793;SHT31;68134;51.984;5.652;2023-04-05T07:29:05;5.8;53.4
78793;SHT31;68134;51.984;5.652;2023-04-05T07:31:36;6.0;51.2
78793;SHT31;68134;51.984;5.652;2023-04-05T07:34:06;6.1;52.5
78793;SHT31;68134;51.984;5.652;2023-04-05T07:36:38;6.2;52.4
78793;SHT31;68134;51.984;5.652;2023-04-05T07:39:08;6.3;50.3
78793;SHT31;68134;51.984;5.652;2023-04-05T07:41:38;6.5;51.0
78793;SHT31;68134;51.984;5.652;2023-04-05T07:44:07;6.7;48.8
78793;SHT31;68134;51.984;5.652;2023-04-05T07:46:37;6.9;49.8
78793;SHT31;68134;51.984;5.652;2023-04-05T07:49:11;7.2;49.6
78793;SHT31;68134;51.984;5.652;2023-04-05T07:51:41;7.4;50.6
78793;SHT31;68134;51.984;5.652;2023-04-05T07:54:12;7.6;49.0
78793;SHT31;68134;51.984;5.652;2023-04-05T07:56:42;7.8;48.6
78793;SHT31;68134;51.984;5.652;2023-04-05T07:59:12;8.0;48.5
78793;SHT31;68134;51.984;5.652;2023-04-05T08:01:42;8.3;47.8
78793;SHT31;68134;51.984;5.652;2023-04-05T08:04:11;8.6;47.9
78793;SHT31;68134;51.984;5.652;2023-04-05T08:06:41;9.1;46.7
78793;SHT31;68134;51.984;5.652;2023-04-05T08:09:12;9.8;44.2
78793;SHT31;68134;51.984;5.652;2023-04-05T08:11:42;10.4;43.5
78793;SHT31;68134;51.984;5.652;2023-04-05T08:14:12;11.1;40.5
78793;SHT31;68134;51.984;5.652;2023-04-05T08:16:42;11.6;39.2
78793;SHT31;68134;51.984;5.652;2023-04-05T08:19:11;12.0;40.1
78793;SHT31;68134;51.984;5.652;2023-04-05T08:21:41;12.4;39.5
78793;SHT31;68134;51.984;5.652;2023-04-05T08:24:11;12.8;37.1
78793;SHT31;68134;51.984;5.652;2023-04-05T08:26:41;13.1;36.8
78793;SHT31;68134;51.984;5.652;2023-04-05T08:29:10;13.4;35.7
78793;SHT31;68134;51.984;5.652;2023-04-05T08:31:40;13.7;35.0
78793;SHT31;68134;51.984;5.652;2023-04-05T08:34:10;14.0;35.6
78793;SHT31;68134;51.984;5.652;2023-04-05T08:36:39;14.3;34.0
78793;SHT31;68134;51.984;5.652;2023-04-05T08:39:09;14.6;33.8
78793;SHT31;68134;51.984;5.652;2023-04-05T08:41:40;15.0;33.7
78793;SHT31;68134;51.984;5.652;2023-04-05T08:44:16;15.4;33.4
78793;SHT31;68134;51.984;5.652;2023-04-05T08:46:50;15.8;31.6
78793;SHT31;68134;51.984;5.652;2023-04-05T08:49:20;16.1;31.7
78793;SHT31;68134;51.984;5.652;2023-04-05T08:51:49;16.4;29.5
78793;SHT31;68134;51.984;5.652;2023-04-05T08:54:19;16.6;29.6
78793;SHT31;68134;51.984;5.652;2023-04-05T08:56:52;16.7;29.3
78793;SHT31;68134;51.984;5.652;2023-04-05T08:59:23;16.8;28.9
78793;SHT31;68134;51.984;5.652;2023-04-05T09:01:54;17.0;29.3
78793;SHT31;68134;51.984;5.652;2023-04-05T09:04:29;17.2;28.3
78793;SHT31;68134;51.984;5.652;2023-04-05T09:07:03;17.3;26.8
78793;SHT31;68134;51.984;5.652;2023-04-05T09:09:37;17.4;27.3
78793;SHT31;68134;51.984;5.652;2023-04-05T09:12:07;17.5;27.5
78793;SHT31;68134;51.984;5.652;2023-04-05T09:14:38;17.6;26.8
78793;SHT31;68134;51.984;5.652;2023-04-05T09:17:09;17.8;26.6
78793;SHT31;68134;51.984;5.652;2023-04-05T09:19:39;18.0;25.4
78793;SHT31;68134;51.984;5.652;2023-04-05T09:22:10;18.1;25.0
78793;SHT31;68134;51.984;5.652;2023-04-05T09:24:41;18.3;24.6
78793;SHT31;68134;51.984;5.652;2023-04-05T09:27:12;18.4;24.8
78793;SHT31;68134;51.984;5.652;2023-04-05T09:29:43;18.5;25.2
78793;SHT31;68134;51.984;5.652;2023-04-05T09:32:15;18.6;25.3
78793;SHT31;68134;51.984;5.652;2023-04-05T09:34:45;18.7;24.2
78793;SHT31;68134;51.984;5.652;2023-04-05T09:37:16;18.9;24.1
78793;SHT31;68134;51.984;5.652;2023-04-05T09:39:48;19.1;23.6
78793;SHT31;68134;51.984;5.652;2023-04-05T09:42:19;19.3;23.0
78793;SHT31;68134;51.984;5.652;2023-04-05T09:44:53;19.3;23.4
78793;SHT31;68134;51.984;5.652;2023-04-05T09:47:26;19.4;23.1
78793;SHT31;68134;51.984;5.652;2023-04-05T09:49:58;19.5;22.3
78793;SHT31;68134;51.984;5.652;2023-04-05T09:52:29;19.6;23.1
78793;SHT31;68134;51.984;5.652;2023-04-05T09:55:01;19.7;22.9
78793;SHT31;68134;51.984;5.652;2023-04-05T09:57:35;19.9;21.7
78793;SHT31;68134;51.984;5.652;2023-04-05T10:00:18;20.0;21.5
78793;SHT31;68134;51.984;5.652;2023-04-05T10:02:52;20.1;22.2
78793;SHT31;68134;51.984;5.652;2023-04-05T10:05:26;20.3;20.9
78793;SHT31;68134;51.984;5.652;2023-04-05T10:07:56;20.3;21.9
78793;SHT31;68134;51.984;5.652;2023-04-05T10:10:28;20.4;21.7
78793;SHT31;68134;51.984;5.652;2023-04-05T10:13:02;20.5;20.5
78793;SHT31;68134;51.984;5.652;2023-04-05T10:15:34;20.6;21.3
78793;SHT31;68134;51.984;5.652;2023-04-05T10:18:12;20.7;22.0
78793;SHT31;68134;51.984;5.652;2023-04-05T10:20:51;20.8;21.3
78793;SHT31;68134;51.984;5.652;2023-04-05T10:23:27;20.9;21.4
78793;SHT31;68134;51.984;5.652;2023-04-05T10:26:04;21.0;21.2
78793;SHT31;68134;51.984;5.652;2023-04-05T10:28:45;21.1;20.5
78793;SHT31;68134;51.984;5.652;2023-04-05T10:31:24;21.2;21.0
78793;SHT31;68134;51.984;5.652;2023-04-05T10:34:02;21.2;20.9
78793;SHT31;68134;51.984;5.652;2023-04-05T10:36:38;21.2;20.5
78793;SHT31;68134;51.984;5.652;2023-04-05T10:39:12;21.3;20.7
78793;SHT31;68134;51.984;5.652;2023-04-05T10:41:47;21.3;20.9
78793;SHT31;68134;51.984;5.652;2023-04-05T10:44:17;21.4;19.2
78793;SHT31;68134;51.984;5.652;2023-04-05T10:46:46;21.5;20.5
78793;SHT31;68134;51.984;5.652;2023-04-05T10:49:21;21.5;21.2
78793;SHT31;68134;51.984;5.652;2023-04-05T10:51:51;21.7;21.0
78793;SHT31;68134;51.984;5.652;2023-04-05T10:54:21;21.8;20.2
78793;SHT31;68134;51.984;5.652;2023-04-05T10:56:52;21.9;21.0
78793;SHT31;68134;51.984;5.652;2023-04-05T10:59:24;22.0;19.8
78793;SHT31;68134;51.984;5.652;2023-04-05T11:01:55;22.1;20.5
78793;SHT31;68134;51.984;5.652;2023-04-05T11:04:26;22.2;20.2
78793;SHT31;68134;51.984;5.652;2023-04-05T11:07:12;22.5;19.5
78793;SHT31;68134;51.984;5.652;2023-04-05T11:09:53;22.6;19.1
78793;SHT31;68134;51.984;5.652;2023-04-05T11:13:02;22.7;19.5
78793;SHT31;68134;51.984;5.652;2023-04-05T11:15:34;22.9;18.6
78793;SHT31;68134;51.984;5.652;2023-04-05T11:18:21;23.0;18.1
78793;SHT31;68134;51.984;5.652;2023-04-05T11:20:53;23.1;17.8
78793;SHT31;68134;51.984;5.652;2023-04-05T11:23:24;23.1;18.0
78793;SHT31;68134;51.984;5.652;2023-04-05T11:26:04;23.2;18.2
78793;SHT31;68134;51.984;5.652;2023-04-05T11:28:34;23.3;17.6
78793;SHT31;68134;51.984;5.652;2023-04-05T11:31:14;23.3;17.3
78793;SHT31;68134;51.984;5.652;2023-04-05T11:33:55;23.3;17.9
78793;SHT31;68134;51.984;5.652;2023-04-05T11:36:38;23.3;17.5
78793;SHT31;68134;51.984;5.652;2023-04-05T11:39:25;23.4;18.2
78793;SHT31;68134;51.984;5.652;2023-04-05T11:42:03;23.5;18.4
78793;SHT31;68134;51.984;5.652;2023-04-05T11:44:42;23.5;17.8
78793;SHT31;68134;51.984;5.652;2023-04-05T11:47:13;23.6;17.6
78793;SHT31;68134;51.984;5.652;2023-04-05T11:49:48;23.6;17.3
78793;SHT31;68134;51.984;5.652;2023-04-05T11:52:19;23.7;16.9
78793;SHT31;68134;51.984;5.652;2023-04-05T11:54:50;23.8;17.8
78793;SHT31;68134;51.984;5.652;2023-04-05T11:57:22;23.9;17.4
78793;SHT31;68134;51.984;5.652;2023-04-05T11:59:52;24.0;18.1
78793;SHT31;68134;51.984;5.652;2023-04-05T12:02:23;24.2;17.3
78793;SHT31;68134;51.984;5.652;2023-04-05T12:04:56;24.4;17.8
78793;SHT31;68134;51.984;5.652;2023-04-05T12:07:27;24.5;16.3
78793;SHT31;68134;51.984;5.652;2023-04-05T12:10:07;24.5;16.3
78793;SHT31;68134;51.984;5.652;2023-04-05T12:12:41;24.5;17.5
78793;SHT31;68134;51.984;5.652;2023-04-05T12:15:12;24.6;17.0
78793;SHT31;68134;51.984;5.652;2023-04-05T12:17:47;24.7;16.7
78793;SHT31;68134;51.984;5.652;2023-04-05T12:20:19;24.7;17.1
78793;SHT31;68134;51.984;5.652;2023-04-05T12:22:52;24.8;16.9
78793;SHT31;68134;51.984;5.652;2023-04-05T12:25:23;24.8;16.5
78793;SHT31;68134;51.984;5.652;2023-04-05T12:27:55;24.9;17.9
78793;SHT31;68134;51.984;5.652;2023-04-05T12:30:26;25.0;17.2
78793;SHT31;68134;51.984;5.652;2023-04-05T12:33:06;25.0;16.9
78793;SHT31;68134;51.984;5.652;2023-04-05T12:35:38;25.1;17.2
78793;SHT31;68134;51.984;5.652;2023-04-05T12:38:07;25.1;16.4
78793;SHT31;68134;51.984;5.652;2023-04-05T12:40:39;25.2;16.3
78793;SHT31;68134;51.984;5.652;2023-04-05T12:43:10;25.2;15.9
78793;SHT31;68134;51.984;5.652;2023-04-05T12:45:45;25.3;16.8
78793;SHT31;68134;51.984;5.652;2023-04-05T12:48:20;25.3;15.7
78793;SHT31;68134;51.984;5.652;2023-04-05T12:50:52;25.3;16.0
78793;SHT31;68134;51.984;5.652;2023-04-05T12:53:25;25.3;16.2
78793;SHT31;68134;51.984;5.652;2023-04-05T12:55:56;25.4;16.1
78793;SHT31;68134;51.984;5.652;2023-04-05T12:58:34;25.4;16.2
78793;SHT31;68134;51.984;5.652;2023-04-05T13:01:04;25.5;16.0
78793;SHT31;68134;51.984;5.652;2023-04-05T13:03:34;25.5;15.6
78793;SHT31;68134;51.984;5.652;2023-04-05T13:06:04;25.4;16.6
78793;SHT31;68134;51.984;5.652;2023-04-05T13:08:34;25.4;16.8
78793;SHT31;68134;51.984;5.652;2023-04-05T13:11:04;25.4;15.8
78793;SHT31;68134;51.984;5.652;2023-04-05T13:13:33;25.3;15.9
78793;SHT31;68134;51.984;5.652;2023-04-05T13:16:03;25.3;16.6
78793;SHT31;68134;51.984;5.652;2023-04-05T13:18:33;25.3;16.2
78793;SHT31;68134;51.984;5.652;2023-04-05T13:21:03;25.2;16.1
78793;SHT31;68134;51.984;5.652;2023-04-05T13:23:35;25.2;16.4
78793;SHT31;68134;51.984;5.652;2023-04-05T13:26:06;25.3;15.9
78793;SHT31;68134;51.984;5.652;2023-04-05T13:28:36;25.4;16.2
78793;SHT31;68134;51.984;5.652;2023-04-05T13:31:06;25.4;16.1
78793;SHT31;68134;51.984;5.652;2023-04-05T13:33:35;25.5;15.6
78793;SHT31;68134;51.984;5.652;2023-04-05T13:36:05;25.5;16.0
78793;SHT31;68134;51.984;5.652;2023-04-05T13:38:37;25.5;16.2
78793;SHT31;68134;51.984;5.652;2023-04-05T13:41:09;25.5;16.3
78793;SHT31;68134;51.984;5.652;2023-04-05T13:43:42;25.5;15.1
78793;SHT31;68134;51.984;5.652;2023-04-05T13:46:11;25.5;15.5
78793;SHT31;68134;51.984;5.652;2023-04-05T13:48:41;25.5;16.1
78793;SHT31;68134;51.984;5.652;2023-04-05T13:51:11;25.4;15.6
78793;SHT31;68134;51.984;5.652;2023-04-05T13:53:40;25.3;15.8
78793;SHT31;68134;51.984;5.652;2023-04-05T13:56:10;25.3;16.1
78793;SHT31;68134;51.984;5.652;2023-04-05T13:58:39;25.2;15.5
78793;SHT31;68134;51.984;5.652;2023-04-05T14:01:09;25.2;15.7
78793;SHT31;68134;51.984;5.652;2023-04-05T14:03:39;25.1;16.2
78793;SHT31;68134;51.984;5.652;2023-04-05T14:06:08;25.1;16.4
78793;SHT31;68134;51.984;5.652;2023-04-05T14:08:38;25.0;17.0
78793;SHT31;68134;51.984;5.652;2023-04-05T14:11:08;25.0;16.4
78793;SHT31;68134;51.984;5.652;2023-04-05T14:13:38;25.0;16.8
78793;SHT31;68134;51.984;5.652;2023-04-05T14:16:08;24.9;16.9
78793;SHT31;68134;51.984;5.652;2023-04-05T14:18:37;24.9;16.9
78793;SHT31;68134;51.984;5.652;2023-04-05T14:21:07;24.8;16.4
78793;SHT31;68134;51.984;5.652;2023-04-05T14:23:37;24.6;16.4
78793;SHT31;68134;51.984;5.652;2023-04-05T14:26:07;24.3;16.8
78793;SHT31;68134;51.984;5.652;2023-04-05T14:28:36;24.0;17.3
78793;SHT31;68134;51.984;5.652;2023-04-05T14:31:06;23.7;17.1
78793;SHT31;68134;51.984;5.652;2023-04-05T14:33:36;23.5;16.9
78793;SHT31;68134;51.984;5.652;2023-04-05T14:36:06;23.2;18.2
78793;SHT31;68134;51.984;5.652;2023-04-05T14:38:35;23.1;18.1
78793;SHT31;68134;51.984;5.652;2023-04-05T14:41:05;23.0;17.6
78793;SHT31;68134;51.984;5.652;2023-04-05T14:43:37;22.8;17.6
78793;SHT31;68134;51.984;5.652;2023-04-05T14:46:09;22.5;17.5
78793;SHT31;68134;51.984;5.652;2023-04-05T14:48:38;22.2;17.8
78793;SHT31;68134;51.984;5.652;2023-04-05T14:51:08;22.0;19.0
78793;SHT31;68134;51.984;5.652;2023-04-05T14:53:38;21.8;19.0
78793;SHT31;68134;51.984;5.652;2023-04-05T14:56:08;21.7;19.8
78793;SHT31;68134;51.984;5.652;2023-04-05T14:58:38;21.6;19.1
78793;SHT31;68134;51.984;5.652;2023-04-05T15:01:08;21.5;19.1
78793;SHT31;68134;51.984;5.652;2023-04-05T15:03:38;21.4;18.5
78793;SHT31;68134;51.984;5.652;2023-04-05T15:06:09;21.3;18.2
78793;SHT31;68134;51.984;5.652;2023-04-05T15:08:39;21.0;18.3
78793;SHT31;68134;51.984;5.652;2023-04-05T15:11:08;20.9;18.8
78793;SHT31;68134;51.984;5.652;2023-04-05T15:13:38;20.7;19.7
78793;SHT31;68134;51.984;5.652;2023-04-05T15:16:08;20.6;19.4
78793;SHT31;68134;51.984;5.652;2023-04-05T15:18:38;20.5;19.4
78793;SHT31;68134;51.984;5.652;2023-04-05T15:21:08;20.4;20.0
78793;SHT31;68134;51.984;5.652;2023-04-05T15:23:37;20.3;19.8
78793;SHT31;68134;51.984;5.652;2023-04-05T15:26:07;20.2;20.0
78793;SHT31;68134;51.984;5.652;2023-04-05T15:28:37;20.1;19.7
78793;SHT31;68134;51.984;5.652;2023-04-05T15:31:07;20.0;20.8
78793;SHT31;68134;51.984;5.652;2023-04-05T15:33:37;19.9;21.1
78793;SHT31;68134;51.984;5.652;2023-04-05T15:36:07;19.8;21.0
78793;SHT31;68134;51.984;5.652;2023-04-05T15:38:37;19.8;20.6
78793;SHT31;68134;51.984;5.652;2023-04-05T15:41:07;19.7;20.4
78793;SHT31;68134;51.984;5.652;2023-04-05T15:43:37;19.7;20.5
78793;SHT31;68134;51.984;5.652;2023-04-05T15:46:07;19.6;20.3
78793;SHT31;68134;51.984;5.652;2023-04-05T15:48:37;19.5;20.6
78793;SHT31;68134;51.984;5.652;2023-04-05T15:51:07;19.4;20.3
78793;SHT31;68134;51.984;5.652;2023-04-05T15:53:38;19.3;21.1
78793;SHT31;68134;51.984;5.652;2023-04-05T15:56:08;19.2;21.2
78793;SHT31;68134;51.984;5.652;2023-04-05T15:58:38;19.1;21.3
78793;SHT31;68134;51.984;5.652;2023-04-05T16:01:08;19.1;20.9
78793;SHT31;68134;51.984;5.652;2023-04-05T16:03:37;19.0;21.2
78793;SHT31;68134;51.984;5.652;2023-04-05T16:06:08;19.0;20.6
78793;SHT31;68134;51.984;5.652;2023-04-05T16:08:38;19.0;20.7
78793;SHT31;68134;51.984;5.652;2023-04-05T16:11:07;18.9;21.3
78793;SHT31;68134;51.984;5.652;2023-04-05T16:13:37;18.9;20.8
78793;SHT31;68134;51.984;5.652;2023-04-05T16:16:07;18.8;20.9
78793;SHT31;68134;51.984;5.652;2023-04-05T16:18:37;18.7;20.9
78793;SHT31;68134;51.984;5.652;2023-04-05T16:21:07;18.6;21.4
78793;SHT31;68134;51.984;5.652;2023-04-05T16:23:36;18.5;21.5
78793;SHT31;68134;51.984;5.652;2023-04-05T16:26:06;18.4;21.5
78793;SHT31;68134;51.984;5.652;2023-04-05T16:28:36;18.3;21.5
78793;SHT31;68134;51.984;5.652;2023-04-05T16:31:06;18.2;22.1
78793;SHT31;68134;51.984;5.652;2023-04-05T16:33:35;18.1;21.8
78793;SHT31;68134;51.984;5.652;2023-04-05T16:36:07;18.1;22.0
78793;SHT31;68134;51.984;5.652;2023-04-05T16:38:37;18.0;21.2
78793;SHT31;68134;51.984;5.652;2023-04-05T16:41:08;17.9;21.7